Time;durP1;ratioP1;P1;durP2;ratioP2;P2;SDS_P1;SDS_P2;PMS_P1;PMS_P2;Temp;Humidity;BMP_temperature;BMP_pressure;BME280_temperature;BME280_humidity;BME280_pressure;Samples;Min_cycle;Max_cycle;Signal;HPM_P1;HPM_P2
2022/01/27 00:03:13;;;;;;;;;;;;;;;;;;5066517;28;20411;-73
2022/01/27 00:05:47;;;;;;;;;;;;;;;;;;5086626;28;19928;-73
2022/01/27 00:08:17;;;;;;;;;;;;;;;;;;5082384;28;19970;-73
2022/01/27 00:10:52;;;;;;;;;;;;;;;;;;5079955;28;19963;-74
2022/01/27 00:13:23;;;;;;;;;;;;;;;;;;5085726;28;19960;-73
2022/01/27 00:15:59;;;;;;;;;;;;;;;;;;5081794;28;19959;-72
2022/01/27 00:18:29;;;;;;;;;;;;;;;;;;5081231;28;19930;-72
2022/01/27 00:20:59;;;;;;;;;;;;;;;;;;5086970;28;19924;-73
2022/01/27 00:23:26;;;;;;;;;;;;;;;;;;5088962;28;19931;-73
2022/01/27 00:25:53;;;;;;;;;;;;;;;;;;5082453;28;19932;-73
2022/01/27 00:28:21;;;;;;;;;;;;;;;;;;5082526;28;19924;-72
2022/01/27 00:30:48;;;;;;;;;;;;;;;;;;5083847;28;20074;-75
2022/01/27 00:33:15;;;;;;;;;;;;;;;;;;5081493;28;19935;-73
2022/01/27 00:35:42;;;;;;;;;;;;;;;;;;5090282;28;19935;-73
2022/01/27 00:38:10;;;;;;;;;;;;;;;;;;5081116;28;20011;-72
2022/01/27 00:40:38;;;;;;;;;;;;;;;;;;5087304;28;19932;-72
2022/01/27 00:43:05;;;;;;;;;;;;;;;;;;5083759;28;20384;-72
2022/01/27 00:45:33;;;;;;;;;;;;;;;;;;5088946;28;19956;-72
2022/01/27 00:48:04;;;;;;;;;;;;;;;;;;5083931;28;19932;-72
2022/01/27 00:50:31;;;;;;;;;;;;;;;;;;5086242;28;19964;-72
2022/01/27 00:53:01;;;;;;;;;;;;;;;;;;5082986;28;19924;-72
2022/01/27 00:55:32;;;;;;;;;;;;;;;;;;5089125;28;20010;-71
2022/01/27 00:58:10;;;;;;;;;;;;;;;;;;5082641;28;19928;-71
2022/01/27 01:00:42;;;;;;;;;;;;;;;;;;5077604;28;19924;-71
2022/01/27 01:03:14;;;;;;;;;;;;;;;;;;5086634;28;19924;-70
2022/01/27 01:06:00;;;;;;;;;;;;;;;;;;5076918;28;19924;-73
2022/01/27 01:16:47;;;;;;;;;;;;;;;;;;5082196;28;19965;-71
2022/01/27 01:19:22;;;;;;;;;;;;;;;;;;5080730;28;19932;-71
2022/01/27 01:22:08;;;;;;;;;;;;;;;;;;5083306;28;19958;-72
2022/01/27 01:30:21;;;;;;;;;;;;;;;;;;5057684;28;19928;-71
2022/01/27 01:32:52;;;;;;;;;;;;;;;;;;5077500;28;19924;-72
2022/01/27 01:35:27;;;;;;;;;;;;;;;;;;5085632;28;19924;-72
2022/01/27 01:37:54;;;;;;;;;;;;;;;;;;5084954;28;19956;-72
2022/01/27 01:40:22;;;;;;;;;;;;;;;;;;5077517;28;19935;-71
2022/01/27 01:42:49;;;;;;;;;;;;;;;;;;5080262;28;20059;-72
2022/01/27 01:45:17;;;;;;;;;;;;;;;;;;5083941;28;19932;-72
2022/01/27 01:47:44;;;;;;;;;;;;;;;;;;5082505;28;19923;-72
2022/01/27 01:50:11;;;;;;;;;;;;;;;;;;5078701;28;20452;-72
2022/01/27 01:52:38;;;;;;;;;;;;;;;;;;5075447;28;20019;-72
2022/01/27 01:55:05;;;;;;;;;;;;;;;;;;5082184;28;19932;-71
2022/01/27 01:57:32;;;;;;;;;;;;;;;;;;5088822;28;20297;-71
2022/01/27 01:59:59;;;;;;;;;;;;;;;;;;5078687;28;19933;-72
2022/01/27 02:02:26;;;;;;;;;;;;;;;;;;5081064;28;20011;-72
2022/01/27 02:04:54;;;;;;;;;;;;;;;;;;5085486;28;20309;-72
2022/01/27 02:07:29;;;;;;;;;;;;;;;;;;5081256;28;20198;-72
2022/01/27 02:10:09;;;;;;;;;;;;;;;;;;5081647;28;19963;-72
2022/01/27 02:18:08;;;;;;;;;;;;;;;;;;5082254;28;19922;-72
2022/01/27 02:20:35;;;;;;;;;;;;;;;;;;5084428;28;20301;-73
2022/01/27 02:23:02;;;;;;;;;;;;;;;;;;5085088;28;19950;-71
2022/01/27 02:25:30;;;;;;;;;;;;;;;;;;5084607;28;19928;-73
2022/01/27 02:27:58;;;;;;;;;;;;;;;;;;5079508;28;19925;-72
2022/01/27 02:30:27;;;;;;;;;;;;;;;;;;5078890;28;19978;-73
2022/01/27 02:32:54;;;;;;;;;;;;;;;;;;5087023;28;19959;-71
2022/01/27 02:35:21;;;;;;;;;;;;;;;;;;5084693;28;20025;-71
2022/01/27 02:37:48;;;;;;;;;;;;;;;;;;5085090;28;19986;-71
2022/01/27 02:40:16;;;;;;;;;;;;;;;;;;5087931;28;19925;-72
2022/01/27 02:42:44;;;;;;;;;;;;;;;;;;5080254;28;19924;-71
2022/01/27 02:45:12;;;;;;;;;;;;;;;;;;5087533;28;20347;-71
2022/01/27 02:47:43;;;;;;;;;;;;;;;;;;5081882;28;20374;-72
2022/01/27 02:50:10;;;;;;;;;;;;;;;;;;5088889;28;20436;-71
2022/01/27 02:52:38;;;;;;;;;;;;;;;;;;5089517;28;20024;-71
2022/01/27 02:55:05;;;;;;;;;;;;;;;;;;5091264;28;19932;-72
2022/01/27 02:57:32;;;;;;;;;;;;;;;;;;5082802;28;19972;-72
2022/01/27 02:59:59;;;;;;;;;;;;;;;;;;5082501;28;19925;-72
2022/01/27 03:02:26;;;;;;;;;;;;;;;;;;5085478;28;20296;-73
2022/01/27 03:04:54;;;;;;;;;;;;;;;;;;5086891;28;19939;-72
2022/01/27 03:07:21;;;;;;;;;;;;;;;;;;5084222;28;19931;-72
2022/01/27 03:09:49;;;;;;;;;;;;;;;;;;5084672;28;19971;-73
2022/01/27 03:12:17;;;;;;;;;;;;;;;;;;5082624;28;19956;-73
2022/01/27 03:14:44;;;;;;;;;;;;;;;;;;5084411;28;19924;-73
2022/01/27 03:17:12;;;;;;;;;;;;;;;;;;5078053;28;19963;-73
2022/01/27 03:19:39;;;;;;;;;;;;;;;;;;5081061;28;19924;-72
2022/01/27 03:22:06;;;;;;;;;;;;;;;;;;5078983;28;19924;-73
2022/01/27 03:24:33;;;;;;;;;;;;;;;;;;5084699;28;19935;-73
2022/01/27 03:27:01;;;;;;;;;;;;;;;;;;5081196;28;19924;-73
2022/01/27 03:29:29;;;;;;;;;;;;;;;;;;5082478;28;20541;-72
2022/01/27 03:31:56;;;;;;;;;;;;;;;;;;5082729;28;20144;-73
2022/01/27 03:34:23;;;;;;;;;;;;;;;;;;5084933;28;19929;-73
2022/01/27 03:36:51;;;;;;;;;;;;;;;;;;5085921;28;19964;-73
2022/01/27 03:39:21;;;;;;;;;;;;;;;;;;5083558;28;20324;-73
2022/01/27 03:41:50;;;;;;;;;;;;;;;;;;5084390;28;20297;-73
2022/01/27 03:44:17;;;;;;;;;;;;;;;;;;5092631;28;19960;-73
2022/01/27 03:46:46;;;;;;;;;;;;;;;;;;5089474;28;19931;-74
2022/01/27 03:49:13;;;;;;;;;;;;;;;;;;5080950;28;19928;-72
2022/01/27 03:51:40;;;;;;;;;;;;;;;;;;5081583;28;22002;-72
2022/01/27 03:54:07;;;;;;;;;;;;;;;;;;5080662;28;20011;-73
2022/01/27 03:56:34;;;;;;;;;;;;;;;;;;5084618;28;20003;-73
2022/01/27 03:59:02;;;;;;;;;;;;;;;;;;5076591;28;19963;-73
2022/01/27 04:01:30;;;;;;;;;;;;;;;;;;5079390;28;20025;-73
2022/01/27 04:03:59;;;;;;;;;;;;;;;;;;5082810;28;20001;-73
2022/01/27 04:06:33;;;;;;;;;;;;;;;;;;5082004;28;20015;-73
2022/01/27 04:09:01;;;;;;;;;;;;;;;;;;5080796;28;19924;-73
2022/01/27 04:11:28;;;;;;;;;;;;;;;;;;5091655;28;20325;-73
2022/01/27 04:13:55;;;;;;;;;;;;;;;;;;5077533;28;19983;-73
2022/01/27 04:16:22;;;;;;;;;;;;;;;;;;5082592;28;20011;-72
2022/01/27 04:18:49;;;;;;;;;;;;;;;;;;5082716;28;19928;-72
2022/01/27 04:21:16;;;;;;;;;;;;;;;;;;5077327;28;19946;-73
2022/01/27 04:23:43;;;;;;;;;;;;;;;;;;5086938;28;20011;-73
2022/01/27 04:26:12;;;;;;;;;;;;;;;;;;5086782;28;19924;-73
2022/01/27 04:28:40;;;;;;;;;;;;;;;;;;5081100;28;19927;-73
2022/01/27 04:31:09;;;;;;;;;;;;;;;;;;5083498;28;19992;-74
2022/01/27 04:33:38;;;;;;;;;;;;;;;;;;5085059;28;19924;-73
2022/01/27 04:36:10;;;;;;;;;;;;;;;;;;5086257;28;19932;-73
2022/01/27 04:38:43;;;;;;;;;;;;;;;;;;5078444;28;20011;-73
2022/01/27 04:41:16;;;;;;;;;;;;;;;;;;5088179;28;19924;-73
2022/01/27 04:43:49;;;;;;;;;;;;;;;;;;5080563;28;19924;-73
2022/01/27 04:46:25;;;;;;;;;;;;;;;;;;5089321;28;20022;-73
2022/01/27 04:48:56;;;;;;;;;;;;;;;;;;5079622;28;20348;-73
2022/01/27 04:51:24;;;;;;;;;;;;;;;;;;5088754;28;19924;-73
2022/01/27 04:53:56;;;;;;;;;;;;;;;;;;5081701;28;20396;-73
2022/01/27 04:56:24;;;;;;;;;;;;;;;;;;5076520;28;19935;-73
2022/01/27 04:58:55;;;;;;;;;;;;;;;;;;5073883;28;19924;-73
2022/01/27 05:01:29;;;;;;;;;;;;;;;;;;5087334;28;19932;-73
2022/01/27 05:04:00;;;;;;;;;;;;;;;;;;5080854;28;20609;-73
2022/01/27 05:06:27;;;;;;;;;;;;;;;;;;5088230;28;20334;-73
2022/01/27 05:08:55;;;;;;;;;;;;;;;;;;5081287;28;20024;-74
2022/01/27 05:11:26;;;;;;;;;;;;;;;;;;5086751;28;19958;-74
2022/01/27 05:13:56;;;;;;;;;;;;;;;;;;5082649;28;19939;-75
2022/01/27 05:16:23;;;;;;;;;;;;;;;;;;5084339;28;19931;-73
2022/01/27 05:18:50;;;;;;;;;;;;;;;;;;5081653;28;20309;-74
2022/01/27 05:21:17;;;;;;;;;;;;;;;;;;5089045;28;19924;-74
2022/01/27 05:23:44;;;;;;;;;;;;;;;;;;5083912;28;19931;-74
2022/01/27 05:26:11;;;;;;;;;;;;;;;;;;5085360;28;20328;-73
2022/01/27 05:28:38;;;;;;;;;;;;;;;;;;5075272;28;19946;-73
2022/01/27 05:31:06;;;;;;;;;;;;;;;;;;5080899;28;19954;-74
2022/01/27 05:33:33;;;;;;;;;;;;;;;;;;5083333;28;19932;-73
2022/01/27 05:35:59;;;;;;;;;;;;;;;;;;5084057;28;19931;-73
2022/01/27 05:38:26;;;;;;;;;;;;;;;;;;5080939;28;20537;-73
2022/01/27 05:40:53;;;;;;;;;;;;;;;;;;5082958;28;19930;-73
2022/01/27 05:43:20;;;;;;;;;;;;;;;;;;5082030;28;19924;-73
2022/01/27 05:45:47;;;;;;;;;;;;;;;;;;5083731;28;19924;-73
2022/01/27 05:48:14;;;;;;;;;;;;;;;;;;5085269;28;20575;-72
2022/01/27 05:50:41;;;;;;;;;;;;;;;;;;5081897;28;19924;-72
2022/01/27 05:53:08;;;;;;;;;;;;;;;;;;5080656;28;19924;-72
2022/01/27 05:55:35;;;;;;;;;;;;;;;;;;5078271;28;19924;-74
2022/01/27 05:58:02;;;;;;;;;;;;;;;;;;5081567;28;19967;-73
2022/01/27 06:00:29;;;;;;;;;;;;;;;;;;5075009;28;19932;-73
2022/01/27 06:02:56;;;;;;;;;;;;;;;;;;5083167;28;19938;-73
2022/01/27 06:05:23;;;;;;;;;;;;;;;;;;5077831;28;19928;-73
2022/01/27 06:07:50;;;;;;;;;;;;;;;;;;5081818;28;19932;-73
2022/01/27 06:10:17;;;;;;;;;;;;;;;;;;5082588;28;20039;-73
2022/01/27 06:12:43;;;;;;;;;;;;;;;;;;5084418;28;19932;-73
2022/01/27 06:15:10;;;;;;;;;;;;;;;;;;5077646;28;19924;-72
2022/01/27 06:17:37;;;;;;;;;;;;;;;;;;5077396;28;19928;-73
2022/01/27 06:20:04;;;;;;;;;;;;;;;;;;5085161;28;19924;-72
2022/01/27 06:22:34;;;;;;;;;;;;;;;;;;5080670;28;19932;-73
2022/01/27 06:25:01;;;;;;;;;;;;;;;;;;5080694;28;19924;-73
2022/01/27 06:27:28;;;;;;;;;;;;;;;;;;5076227;28;19924;-71
2022/01/27 06:29:55;;;;;;;;;;;;;;;;;;5081658;28;19928;-72
2022/01/27 06:32:21;;;;;;;;;;;;;;;;;;5079720;28;19928;-71
2022/01/27 06:34:48;;;;;;;;;;;;;;;;;;5084629;28;19925;-72
2022/01/27 06:37:17;;;;;;;;;;;;;;;;;;5085081;28;20023;-71
2022/01/27 06:39:44;;;;;;;;;;;;;;;;;;5079490;28;20365;-72
2022/01/27 06:42:11;;;;;;;;;;;;;;;;;;5081956;28;19924;-73
2022/01/27 06:44:38;;;;;;;;;;;;;;;;;;5078500;28;20027;-72
2022/01/27 06:47:05;;;;;;;;;;;;;;;;;;5083173;28;19946;-72
2022/01/27 06:49:32;;;;;;;;;;;;;;;;;;5083162;28;19932;-72
2022/01/27 06:51:59;;;;;;;;;;;;;;;;;;5079414;28;20006;-72
2022/01/27 06:54:26;;;;;;;;;;;;;;;;;;5087705;28;20419;-72
2022/01/27 06:56:54;;;;;;;;;;;;;;;;;;5074825;28;19924;-72
2022/01/27 06:59:21;;;;;;;;;;;;;;;;;;5078607;28;20016;-73
2022/01/27 07:01:48;;;;;;;;;;;;;;;;;;5079347;28;20007;-73
2022/01/27 07:04:15;;;;;;;;;;;;;;;;;;5078746;28;19932;-72
2022/01/27 07:06:42;;;;;;;;;;;;;;;;;;5074147;28;19929;-73
2022/01/27 07:09:09;;;;;;;;;;;;;;;;;;5085091;28;19928;-72
2022/01/27 07:11:36;;;;;;;;;;;;;;;;;;5081773;28;19932;-73
2022/01/27 07:14:03;;;;;;;;;;;;;;;;;;5084022;28;20396;-72
2022/01/27 07:16:31;;;;;;;;;;;;;;;;;;5078990;28;19925;-74
2022/01/27 07:18:59;;;;;;;;;;;;;;;;;;5082476;28;19924;-73
2022/01/27 07:21:26;;;;;;;;;;;;;;;;;;5084246;28;19931;-72
2022/01/27 07:23:53;;;;;;;;;;;;;;;;;;5083065;28;20275;-73
2022/01/27 07:26:25;;;;;;;;;;;;;;;;;;5080442;28;19924;-72
2022/01/27 07:28:51;;;;;;;;;;;;;;;;;;5092804;22;19924;-69
2022/01/27 07:31:18;;;;;;;;;;;;;;;;;;5047517;28;19924;-68
2022/01/27 07:33:47;;;;;;;;;;;;;;;;;;5048501;28;19924;-68
2022/01/27 07:36:14;;;;;;;;;;;;;;;;;;5049735;28;19925;-69
2022/01/27 07:38:41;;;;;;;;;;;;;;;;;;5040051;28;19928;-68
2022/01/27 07:41:08;;;;;;;;;;;;;;;;;;5022915;28;19943;-68
2022/01/27 07:43:35;;;;;;;;;;;;;;;;;;5036989;28;20401;-68
2022/01/27 07:46:03;;;;;;;;;;;;;;;;;;5050585;28;19931;-70
2022/01/27 07:48:30;;;;;;;;;;;;;;;;;;5048043;28;20032;-68
2022/01/27 07:50:57;;;;;;;;;;;;;;;;;;5040286;28;20302;-68
2022/01/27 07:53:24;;;;;;;;;;;;;;;;;;5045470;28;19933;-68
2022/01/27 07:55:51;;;;;;;;;;;;;;;;;;5043780;28;20383;-71
2022/01/27 07:58:18;;;;;;;;;;;;;;;;;;5048201;28;19925;-71
2022/01/27 08:00:44;;;;;;;;;;;;;;;;;;5044963;28;20314;-67
2022/01/27 08:03:11;;;;;;;;;;;;;;;;;;5046683;28;19925;-68
2022/01/27 08:05:38;;;;;;;;;;;;;;;;;;5049150;28;19924;-71
2022/01/27 08:08:05;;;;;;;;;;;;;;;;;;5043104;28;20019;-67
2022/01/27 08:10:37;;;;;;;;;;;;;;;;;;5046345;28;20015;-69
2022/01/27 08:13:04;;;;;;;;;;;;;;;;;;5050778;28;19928;-66
2022/01/27 08:15:31;;;;;;;;;;;;;;;;;;5047542;28;19924;-68
2022/01/27 08:17:58;;;;;;;;;;;;;;;;;;5046649;28;19934;-69
2022/01/27 08:20:25;;;;;;;;;;;;;;;;;;5044406;28;19925;-71
2022/01/27 08:22:53;;;;;;;;;;;;;;;;;;5047906;28;20302;-68
2022/01/27 08:25:20;;;;;;;;;;;;;;;;;;5046300;28;20044;-71
2022/01/27 08:27:49;;;;;;;;;;;;;;;;;;5044919;28;19931;-68
2022/01/27 08:30:18;;;;;;;;;;;;;;;;;;5044897;28;19932;-68
2022/01/27 08:32:48;;;;;;;;;;;;;;;;;;5047852;28;19932;-69
2022/01/27 08:35:15;;;;;;;;;;;;;;;;;;5047916;28;20019;-68
2022/01/27 08:37:41;;;;;;;;;;;;;;;;;;5046458;28;19924;-68
2022/01/27 08:40:08;;;;;;;;;;;;;;;;;;5045929;28;20298;-70
2022/01/27 08:42:40;;;;;;;;;;;;;;;;;;5041907;28;19925;-70
2022/01/27 08:45:07;;;;;;;;;;;;;;;;;;5042633;28;19929;-68
2022/01/27 08:47:34;;;;;;;;;;;;;;;;;;5045750;28;19935;-68
2022/01/27 08:50:01;;;;;;;;;;;;;;;;;;5043137;28;19925;-68
2022/01/27 08:52:28;;;;;;;;;;;;;;;;;;5040113;28;19951;-70
2022/01/27 08:54:55;;;;;;;;;;;;;;;;;;5040790;28;20059;-70
2022/01/27 08:57:22;;;;;;;;;;;;;;;;;;5050778;28;19931;-70
2022/01/27 08:59:51;;;;;;;;;;;;;;;;;;5042304;28;19979;-69
2022/01/27 09:02:18;;;;;;;;;;;;;;;;;;5047583;28;20011;-69
2022/01/27 09:04:44;;;;;;;;;;;;;;;;;;5047036;28;19929;-69
2022/01/27 09:07:11;;;;;;;;;;;;;;;;;;5042980;28;19925;-69
2022/01/27 09:09:38;;;;;;;;;;;;;;;;;;5045184;28;19929;-69
2022/01/27 09:12:05;;;;;;;;;;;;;;;;;;5042323;28;19931;-69
2022/01/27 09:14:32;;;;;;;;;;;;;;;;;;5044843;28;20409;-69
2022/01/27 09:16:59;;;;;;;;;;;;;;;;;;5048971;28;19925;-68
2022/01/27 09:19:26;;;;;;;;;;;;;;;;;;5045245;28;19925;-68
2022/01/27 09:21:54;;;;;;;;;;;;;;;;;;5047860;28;19997;-68
2022/01/27 09:24:27;;;;;;;;;;;;;;;;;;5041348;28;20422;-68
2022/01/27 09:27:00;;;;;;;;;;;;;;;;;;5043957;28;19928;-69
2022/01/27 09:29:26;;;;;;;;;;;;;;;;;;5044779;28;20699;-69
2022/01/27 09:31:53;;;;;;;;;;;;;;;;;;5048719;28;19925;-68
2022/01/27 09:34:20;;;;;;;;;;;;;;;;;;5039946;28;19925;-68
2022/01/27 09:36:49;;;;;;;;;;;;;;;;;;5045621;28;20019;-68
2022/01/27 09:39:16;;;;;;;;;;;;;;;;;;5041836;28;19931;-67
2022/01/27 09:41:43;;;;;;;;;;;;;;;;;;5045167;28;19932;-68
2022/01/27 09:44:12;;;;;;;;;;;;;;;;;;5043443;28;19925;-69
2022/01/27 09:46:41;;;;;;;;;;;;;;;;;;5045574;28;19994;-68
2022/01/27 09:49:13;;;;;;;;;;;;;;;;;;5045139;28;19939;-70
2022/01/27 09:51:43;;;;;;;;;;;;;;;;;;5042826;28;20379;-70
2022/01/27 09:54:10;;;;;;;;;;;;;;;;;;5042259;28;19931;-69
2022/01/27 09:56:36;;;;;;;;;;;;;;;;;;5050462;28;20372;-68
2022/01/27 09:59:03;;;;;;;;;;;;;;;;;;5043001;28;19928;-68
2022/01/27 10:01:30;;;;;;;;;;;;;;;;;;5042412;28;20302;-68
2022/01/27 10:03:57;;;;;;;;;;;;;;;;;;5044788;28;20404;-69
2022/01/27 10:06:29;;;;;;;;;;;;;;;;;;5045383;28;20309;-70
2022/01/27 10:08:56;;;;;;;;;;;;;;;;;;5042021;28;19948;-71
2022/01/27 10:11:23;;;;;;;;;;;;;;;;;;5046643;28;20370;-71
2022/01/27 10:13:50;;;;;;;;;;;;;;;;;;5044739;28;19933;-69
2022/01/27 10:16:17;;;;;;;;;;;;;;;;;;5045598;28;20352;-69
2022/01/27 10:18:45;;;;;;;;;;;;;;;;;;5046744;28;20398;-70
2022/01/27 10:21:13;;;;;;;;;;;;;;;;;;5039045;28;19935;-68
2022/01/27 10:23:40;;;;;;;;;;;;;;;;;;5038950;28;19935;-68
2022/01/27 10:26:12;;;;;;;;;;;;;;;;;;5043362;28;20179;-68
2022/01/27 10:28:45;;;;;;;;;;;;;;;;;;5041130;28;19929;-69
2022/01/27 10:31:12;;;;;;;;;;;;;;;;;;5040692;28;19933;-69
2022/01/27 10:33:38;;;;;;;;;;;;;;;;;;5039444;28;20003;-69
2022/01/27 10:36:05;;;;;;;;;;;;;;;;;;5042829;28;19929;-69
2022/01/27 10:38:32;;;;;;;;;;;;;;;;;;5044689;28;19925;-68
2022/01/27 10:40:59;;;;;;;;;;;;;;;;;;5043781;28;19925;-71
2022/01/27 10:43:28;;;;;;;;;;;;;;;;;;5048838;28;19931;-69
2022/01/27 10:45:55;;;;;;;;;;;;;;;;;;5039098;28;20283;-68
2022/01/27 10:48:26;;;;;;;;;;;;;;;;;;5048178;28;19940;-69
2022/01/27 10:51:01;;;;;;;;;;;;;;;;;;5043830;28;19932;-69
2022/01/27 10:53:28;;;;;;;;;;;;;;;;;;5042205;28;19925;-69
2022/01/27 10:55:55;;;;;;;;;;;;;;;;;;5036926;28;19959;-69
2022/01/27 10:58:21;;;;;;;;;;;;;;;;;;5044428;28;19925;-69
2022/01/27 11:00:48;;;;;;;;;;;;;;;;;;5040668;28;20301;-69
2022/01/27 11:03:15;;;;;;;;;;;;;;;;;;5048898;28;19929;-69
2022/01/27 11:05:42;;;;;;;;;;;;;;;;;;5050776;28;19972;-70
2022/01/27 11:08:09;;;;;;;;;;;;;;;;;;5052851;28;19971;-69
2022/01/27 11:10:36;;;;;;;;;;;;;;;;;;5048517;28;19933;-69
2022/01/27 11:13:03;;;;;;;;;;;;;;;;;;5050437;28;20541;-68
2022/01/27 11:15:30;;;;;;;;;;;;;;;;;;5050923;28;20391;-69
2022/01/27 11:17:57;;;;;;;;;;;;;;;;;;5049656;28;19933;-69
2022/01/27 11:20:30;;;;;;;;;;;;;;;;;;5049558;28;20314;-68
2022/01/27 11:23:35;;;;;;;;;;;;;;;;;;5047629;28;20340;-68
2022/01/27 11:26:00;;;;;;;;;;;;;;;;;;5049838;28;19960;-68
2022/01/27 11:28:27;;;;;;;;;;;;;;;;;;5047193;28;19924;-69
2022/01/27 11:30:54;;;;;;;;;;;;;;;;;;5050566;28;19964;-68
2022/01/27 11:33:21;;;;;;;;;;;;;;;;;;5043108;28;19928;-68
2022/01/27 11:35:48;;;;;;;;;;;;;;;;;;5051192;28;19925;-68
2022/01/27 11:38:15;;;;;;;;;;;;;;;;;;5046017;28;20007;-69
2022/01/27 11:40:42;;;;;;;;;;;;;;;;;;5046803;28;19936;-69
2022/01/27 11:43:10;;;;;;;;;;;;;;;;;;5046032;28;19925;-68
2022/01/27 11:45:37;;;;;;;;;;;;;;;;;;5049346;28;20258;-68
2022/01/27 11:48:08;;;;;;;;;;;;;;;;;;5050079;28;19933;-69
2022/01/27 11:50:36;;;;;;;;;;;;;;;;;;5052050;28;20299;-68
2022/01/27 11:53:03;;;;;;;;;;;;;;;;;;5044546;28;19948;-69
2022/01/27 11:55:30;;;;;;;;;;;;;;;;;;5040987;28;19933;-68
2022/01/27 11:57:57;;;;;;;;;;;;;;;;;;5047704;28;19931;-67
2022/01/27 12:00:24;;;;;;;;;;;;;;;;;;5045814;28;19934;-68
2022/01/27 12:02:51;;;;;;;;;;;;;;;;;;5045989;28;19964;-67
2022/01/27 12:05:18;;;;;;;;;;;;;;;;;;5046864;28;19925;-68
2022/01/27 12:07:45;;;;;;;;;;;;;;;;;;5046530;28;19935;-69
2022/01/27 12:10:11;;;;;;;;;;;;;;;;;;5045535;28;19924;-69
2022/01/27 12:12:39;;;;;;;;;;;;;;;;;;5049172;28;19925;-69
2022/01/27 12:15:08;;;;;;;;;;;;;;;;;;5046454;28;20346;-68
2022/01/27 12:17:35;;;;;;;;;;;;;;;;;;5049368;28;19925;-70
2022/01/27 12:20:02;;;;;;;;;;;;;;;;;;5043887;28;19925;-68
2022/01/27 12:22:29;;;;;;;;;;;;;;;;;;5050472;28;19944;-69
2022/01/27 12:24:56;;;;;;;;;;;;;;;;;;5049603;28;19924;-70
2022/01/27 12:27:23;;;;;;;;;;;;;;;;;;5045367;28;20322;-70
2022/01/27 12:29:50;;;;;;;;;;;;;;;;;;5040685;28;19931;-69
2022/01/27 12:32:17;;;;;;;;;;;;;;;;;;5034092;28;20304;-71
2022/01/27 12:34:44;;;;;;;;;;;;;;;;;;5038695;28;20011;-67
2022/01/27 12:37:11;;;;;;;;;;;;;;;;;;5043788;28;19929;-68
2022/01/27 12:39:38;;;;;;;;;;;;;;;;;;5046060;28;19925;-68
2022/01/27 12:42:05;;;;;;;;;;;;;;;;;;5039766;28;19929;-68
2022/01/27 12:44:32;;;;;;;;;;;;;;;;;;5038734;28;19968;-68
2022/01/27 12:46:59;;;;;;;;;;;;;;;;;;5045545;28;19933;-67
2022/01/27 12:49:27;;;;;;;;;;;;;;;;;;5043532;28;20394;-68
2022/01/27 12:51:56;;;;;;;;;;;;;;;;;;5049874;28;19978;-68
2022/01/27 12:54:23;;;;;;;;;;;;;;;;;;5044849;28;20302;-70
2022/01/27 12:56:50;;;;;;;;;;;;;;;;;;5036793;28;20475;-68
2022/01/27 12:59:17;;;;;;;;;;;;;;;;;;5044363;28;19924;-68
2022/01/27 13:01:44;;;;;;;;;;;;;;;;;;5043991;28;19944;-68
2022/01/27 13:04:11;;;;;;;;;;;;;;;;;;5043569;28;19925;-69
2022/01/27 13:06:38;;;;;;;;;;;;;;;;;;5048308;28;19925;-69
2022/01/27 13:09:05;;;;;;;;;;;;;;;;;;5047285;28;19936;-69
2022/01/27 13:11:31;;;;;;;;;;;;;;;;;;5043055;28;19986;-70
2022/01/27 13:13:58;;;;;;;;;;;;;;;;;;5046137;28;20322;-70
2022/01/27 13:16:30;;;;;;;;;;;;;;;;;;5043523;28;19928;-70
2022/01/27 13:19:04;;;;;;;;;;;;;;;;;;5044911;28;19929;-69
2022/01/27 13:21:34;;;;;;;;;;;;;;;;;;5043693;28;20381;-70
2022/01/27 13:24:01;;;;;;;;;;;;;;;;;;5044501;28;19924;-70
2022/01/27 13:26:28;;;;;;;;;;;;;;;;;;5043916;28;19925;-70
2022/01/27 13:28:55;;;;;;;;;;;;;;;;;;5055318;22;20325;-72
2022/01/27 13:31:21;;;;;;;;;;;;;;;;;;5021367;28;19929;-72
2022/01/27 13:33:48;;;;;;;;;;;;;;;;;;5022846;28;20295;-72
2022/01/27 13:36:15;;;;;;;;;;;;;;;;;;5025359;28;20413;-70
2022/01/27 13:38:59;;;;;;;;;;;;;;;;;;5015296;28;19926;-71
2022/01/27 13:41:27;;;;;;;;;;;;;;;;;;5022981;28;19929;-71
2022/01/27 13:43:54;;;;;;;;;;;;;;;;;;5021909;28;19978;-73
2022/01/27 13:46:21;;;;;;;;;;;;;;;;;;5020768;28;19939;-71
2022/01/27 13:48:48;;;;;;;;;;;;;;;;;;5026100;28;20310;-70
2022/01/27 13:51:15;;;;;;;;;;;;;;;;;;5022625;28;19936;-70
2022/01/27 13:53:42;;;;;;;;;;;;;;;;;;5023672;28;19931;-70
2022/01/27 13:56:09;;;;;;;;;;;;;;;;;;5020416;28;20512;-71
2022/01/27 13:58:36;;;;;;;;;;;;;;;;;;5022729;28;20175;-70
2022/01/27 14:01:03;;;;;;;;;;;;;;;;;;5021356;28;19925;-72
2022/01/27 14:03:30;;;;;;;;;;;;;;;;;;5023512;28;20375;-73
2022/01/27 14:05:57;;;;;;;;;;;;;;;;;;5019797;28;19925;-71
2022/01/27 14:08:24;;;;;;;;;;;;;;;;;;5023521;28;19925;-71
2022/01/27 14:10:50;;;;;;;;;;;;;;;;;;5025124;28;19925;-72
2022/01/27 14:13:21;;;;;;;;;;;;;;;;;;5017498;28;19929;-72
2022/01/27 14:15:48;;;;;;;;;;;;;;;;;;5020945;28;19929;-72
2022/01/27 14:18:15;;;;;;;;;;;;;;;;;;5023531;28;20087;-71
2022/01/27 14:20:42;;;;;;;;;;;;;;;;;;5021695;28;19925;-72
2022/01/27 14:23:17;;;;;;;;;;;;;;;;;;5019300;28;19929;-71
2022/01/27 14:25:51;;;;;;;;;;;;;;;;;;5022149;28;20025;-73
2022/01/27 14:28:18;;;;;;;;;;;;;;;;;;5023560;28;19983;-71
2022/01/27 14:30:45;;;;;;;;;;;;;;;;;;5021476;28;19932;-71
2022/01/27 14:33:12;;;;;;;;;;;;;;;;;;5021070;28;19972;-71
2022/01/27 14:35:39;;;;;;;;;;;;;;;;;;5029197;28;20313;-71
2022/01/27 14:38:06;;;;;;;;;;;;;;;;;;5023923;28;19925;-72
2022/01/27 14:40:33;;;;;;;;;;;;;;;;;;5023715;28;20020;-68
2022/01/27 14:43:01;;;;;;;;;;;;;;;;;;5030178;28;19925;-68
2022/01/27 14:45:28;;;;;;;;;;;;;;;;;;5022625;28;19936;-63
2022/01/27 14:48:00;;;;;;;;;;;;;;;;;;5024387;28;20272;-70
2022/01/27 14:50:27;;;;;;;;;;;;;;;;;;5027712;28;19929;-69
2022/01/27 14:52:56;;;;;;;;;;;;;;;;;;5024796;28;19934;-68
2022/01/27 14:55:23;;;;;;;;;;;;;;;;;;5027430;28;20012;-68
2022/01/27 14:57:50;;;;;;;;;;;;;;;;;;5025877;28;19991;-68
2022/01/27 15:00:17;;;;;;;;;;;;;;;;;;5022001;28;19925;-68
2022/01/27 15:02:43;;;;;;;;;;;;;;;;;;5027885;28;20380;-69
2022/01/27 15:05:10;;;;;;;;;;;;;;;;;;5023292;28;19936;-68
2022/01/27 15:07:38;;;;;;;;;;;;;;;;;;5023822;28;19930;-63
2022/01/27 15:10:05;;;;;;;;;;;;;;;;;;5025784;28;20395;-63
2022/01/27 15:12:32;;;;;;;;;;;;;;;;;;5023582;28;19929;-69
2022/01/27 15:20:29;;;;;;;;;;;;;;;;;;5026738;28;19971;-72
2022/01/27 15:22:56;;;;;;;;;;;;;;;;;;5025913;28;20319;-71
2022/01/27 15:25:24;;;;;;;;;;;;;;;;;;5026884;28;19925;-73
2022/01/27 15:27:51;;;;;;;;;;;;;;;;;;5023806;28;19968;-72
2022/01/27 15:30:18;;;;;;;;;;;;;;;;;;5028516;28;20263;-72
2022/01/27 15:32:45;;;;;;;;;;;;;;;;;;5021937;28;19937;-71
2022/01/27 15:35:12;;;;;;;;;;;;;;;;;;5020618;28;20020;-74
2022/01/27 15:37:40;;;;;;;;;;;;;;;;;;5022296;28;19956;-74
2022/01/27 15:40:09;;;;;;;;;;;;;;;;;;5012273;28;19925;-75
2022/01/27 15:42:36;;;;;;;;;;;;;;;;;;5023412;28;20060;-75
2022/01/27 15:45:03;;;;;;;;;;;;;;;;;;5022212;28;20301;-74
2022/01/27 15:47:30;;;;;;;;;;;;;;;;;;5026610;28;19933;-74
2022/01/27 15:49:57;;;;;;;;;;;;;;;;;;5025500;28;20344;-73
2022/01/27 15:52:27;;;;;;;;;;;;;;;;;;5026508;28;20403;-76
2022/01/27 15:54:54;;;;;;;;;;;;;;;;;;5024732;28;19929;-73
2022/01/27 15:57:21;;;;;;;;;;;;;;;;;;5022425;28;20027;-75
2022/01/27 15:59:49;;;;;;;;;;;;;;;;;;5018327;28;19925;-75
2022/01/27 16:02:16;;;;;;;;;;;;;;;;;;5025326;28;19939;-74
2022/01/27 16:04:43;;;;;;;;;;;;;;;;;;5025672;28;19929;-75
2022/01/27 16:07:10;;;;;;;;;;;;;;;;;;5024377;28;19933;-74
2022/01/27 16:09:37;;;;;;;;;;;;;;;;;;5019505;28;19940;-72
2022/01/27 16:12:04;;;;;;;;;;;;;;;;;;5015114;28;19948;-71
2022/01/27 16:14:31;;;;;;;;;;;;;;;;;;5017837;28;19929;-74
2022/01/27 16:16:58;;;;;;;;;;;;;;;;;;5024181;28;19932;-73
2022/01/27 16:19:25;;;;;;;;;;;;;;;;;;5015903;28;19925;-75
2022/01/27 16:21:52;;;;;;;;;;;;;;;;;;5018557;28;19972;-74
2022/01/27 16:24:19;;;;;;;;;;;;;;;;;;5020085;28;20381;-73
2022/01/27 16:26:46;;;;;;;;;;;;;;;;;;5021424;28;19948;-73
2022/01/27 16:29:13;;;;;;;;;;;;;;;;;;5026749;28;19926;-73
2022/01/27 16:31:40;;;;;;;;;;;;;;;;;;5021820;28;19926;-73
2022/01/27 16:34:07;;;;;;;;;;;;;;;;;;5023912;28;19929;-73
2022/01/27 16:36:34;;;;;;;;;;;;;;;;;;5024524;28;19926;-73
2022/01/27 16:39:01;;;;;;;;;;;;;;;;;;5021637;28;19925;-73
2022/01/27 16:41:28;;;;;;;;;;;;;;;;;;5023832;28;19986;-74
2022/01/27 16:43:55;;;;;;;;;;;;;;;;;;5018632;28;20276;-73
2022/01/27 16:46:22;;;;;;;;;;;;;;;;;;5018978;28;19929;-73
2022/01/27 16:48:49;;;;;;;;;;;;;;;;;;5021930;28;20331;-75
2022/01/27 16:51:16;;;;;;;;;;;;;;;;;;5017893;28;20469;-75
2022/01/27 16:53:43;;;;;;;;;;;;;;;;;;5017502;28;19934;-75
2022/01/27 16:56:10;;;;;;;;;;;;;;;;;;5023418;28;19925;-75
2022/01/27 16:58:37;;;;;;;;;;;;;;;;;;5021616;28;19936;-74
2022/01/27 17:01:04;;;;;;;;;;;;;;;;;;5019102;28;19947;-74
2022/01/27 17:03:31;;;;;;;;;;;;;;;;;;5024968;28;19925;-74
2022/01/27 17:05:58;;;;;;;;;;;;;;;;;;5024820;28;20175;-74
2022/01/27 17:08:25;;;;;;;;;;;;;;;;;;5018464;28;19933;-73
2022/01/27 17:10:52;;;;;;;;;;;;;;;;;;5023689;28;19948;-74
2022/01/27 17:13:19;;;;;;;;;;;;;;;;;;5022064;28;19941;-73
2022/01/27 17:15:46;;;;;;;;;;;;;;;;;;5021763;28;20483;-73
2022/01/27 17:18:13;;;;;;;;;;;;;;;;;;5023155;28;20386;-73